Time;durP1;ratioP1;P1;durP2;ratioP2;P2;SDS_P1;SDS_P2;PMS_P1;PMS_P2;Temp;Humidity;BMP_temperature;BMP_pressure;BME280_temperature;BME280_humidity;BME280_pressure;Samples;Min_cycle;Max_cycle;Signal;HPM_P1;HPM_P2
2023/12/02 00:02:14;;;;;;;8.00;6.38;;;3.70;74.90;;;;;;5027996;28;20061;-61
2023/12/02 00:04:40;;;;;;;8.48;5.85;;;3.70;75.00;;;;;;5026802;28;20550;-62
2023/12/02 00:07:06;;;;;;;9.35;6.63;;;3.70;75.10;;;;;;5025678;28;20068;-62
2023/12/02 00:09:32;;;;;;;10.55;6.35;;;3.70;75.10;;;;;;5026791;28;20064;-60
2023/12/02 00:11:57;;;;;;;12.40;6.50;;;4.00;75.20;;;;;;5027057;28;20033;-61
2023/12/02 00:14:23;;;;;;;9.23;6.40;;;3.70;75.10;;;;;;5026588;28;20103;-60
2023/12/02 00:16:48;;;;;;;8.27;6.32;;;3.70;75.00;;;;;;5024567;28;20021;-61
2023/12/02 00:19:14;;;;;;;8.48;6.65;;;3.70;75.10;;;;;;5023729;28;20026;-61
2023/12/02 00:21:40;;;;;;;9.63;6.95;;;3.70;75.10;;;;;;5024354;28;20108;-61
2023/12/02 00:24:06;;;;;;;9.07;6.68;;;3.70;75.00;;;;;;5026257;28;20065;-61
2023/12/02 00:26:32;;;;;;;8.52;6.55;;;3.60;74.80;;;;;;5023227;28;20025;-61
2023/12/02 00:28:57;;;;;;;8.50;6.60;;;3.60;74.80;;;;;;5026572;28;20041;-62
2023/12/02 00:31:23;;;;;;;9.52;6.75;;;3.60;74.80;;;;;;5027243;28;20025;-61
2023/12/02 00:33:49;;;;;;;10.27;5.95;;;3.60;74.90;;;;;;5024891;28;20098;-61
2023/12/02 00:36:14;;;;;;;8.82;6.72;;;3.60;74.90;;;;;;5026098;28;20030;-61
2023/12/02 00:38:40;;;;;;;9.45;6.88;;;3.60;75.00;;;;;;5025681;28;20475;-61
2023/12/02 00:41:09;;;;;;;10.52;7.18;;;3.50;75.00;;;;;;5024991;28;20083;-60
2023/12/02 00:43:35;;;;;;;11.48;7.55;;;3.50;74.90;;;;;;5026284;28;20044;-61
2023/12/02 00:46:00;;;;;;;11.13;7.10;;;3.60;74.90;;;;;;4971752;28;20393;-62
2023/12/02 00:48:26;;;;;;;9.43;6.43;;;3.50;74.90;;;;;;5026846;28;20028;-62
2023/12/02 00:50:52;;;;;;;10.25;6.70;;;3.60;75.00;;;;;;5022433;28;20021;-61
2023/12/02 00:53:17;;;;;;;8.07;6.50;;;3.50;75.10;;;;;;5024043;28;20191;-62
2023/12/02 00:55:44;;;;;;;11.20;6.78;;;3.50;75.20;;;;;;5025927;28;20044;-61
2023/12/02 00:58:10;;;;;;;9.32;6.90;;;3.50;75.20;;;;;;5024941;28;20033;-63
2023/12/02 01:00:35;;;;;;;10.02;7.35;;;3.50;75.20;;;;;;5025973;28;20496;-61
2023/12/02 01:03:01;;;;;;;8.55;6.25;;;3.70;75.20;;;;;;5027618;28;20116;-61
2023/12/02 01:05:27;;;;;;;9.80;6.70;;;3.50;75.10;;;;;;5025989;28;20136;-61
2023/12/02 01:07:52;;;;;;;8.80;6.43;;;3.40;75.10;;;;;;5024877;28;20041;-61
2023/12/02 01:10:18;;;;;;;10.82;7.53;;;3.40;75.00;;;;;;5025827;28;20028;-63
2023/12/02 01:12:43;;;;;;;9.70;6.82;;;3.40;75.10;;;;;;5025571;28;20481;-61
2023/12/02 01:15:09;;;;;;;10.00;7.30;;;3.40;75.00;;;;;;5028516;28;20033;-63
2023/12/02 01:17:35;;;;;;;9.07;6.32;;;3.30;74.80;;;;;;5023189;28;20021;-62
2023/12/02 01:20:00;;;;;;;12.57;6.93;;;3.30;74.80;;;;;;5030164;28;20103;-63
2023/12/02 01:22:26;;;;;;;10.40;7.22;;;3.30;74.90;;;;;;5024048;28;20354;-62
2023/12/02 01:24:52;;;;;;;9.10;6.88;;;3.30;74.90;;;;;;5025385;28;20041;-63
2023/12/02 01:27:17;;;;;;;10.85;7.30;;;3.20;74.90;;;;;;5021885;28;20038;-62
2023/12/02 01:29:44;;;;;;;9.45;6.78;;;3.30;75.00;;;;;;5024987;28;20204;-63
2023/12/02 01:32:09;;;;;;;10.07;7.40;;;3.20;74.90;;;;;;5025092;28;20052;-61
2023/12/02 01:34:35;;;;;;;9.20;6.38;;;3.20;75.00;;;;;;5029441;28;20033;-62
2023/12/02 01:37:00;;;;;;;9.77;7.55;;;3.30;75.00;;;;;;5040134;28;20037;-62
2023/12/02 01:39:26;;;;;;;11.68;6.22;;;3.20;74.90;;;;;;5024040;28;20139;-61
2023/12/02 01:41:52;;;;;;;13.77;7.35;;;3.20;74.90;;;;;;5024868;28;20034;-63
2023/12/02 01:44:18;;;;;;;10.27;6.85;;;3.20;75.00;;;;;;5024667;28;20029;-62
2023/12/02 01:46:44;;;;;;;11.82;7.13;;;3.20;75.00;;;;;;5024315;28;20029;-62
2023/12/02 01:49:11;;;;;;;9.05;6.45;;;3.10;75.00;;;;;;5027879;28;20026;-61
2023/12/02 01:51:36;;;;;;;10.80;6.85;;;3.10;75.00;;;;;;5024414;28;20018;-63
2023/12/02 01:54:03;;;;;;;10.30;6.72;;;3.10;75.10;;;;;;5024277;28;20021;-63
2023/12/02 01:56:29;;;;;;;12.10;7.50;;;3.10;75.00;;;;;;5023991;28;20029;-62
2023/12/02 01:58:54;;;;;;;11.10;7.45;;;3.10;75.00;;;;;;5024541;28;20093;-62
2023/12/02 02:01:20;;;;;;;10.55;6.93;;;3.10;75.00;;;;;;5023242;28;20041;-63
2023/12/02 02:03:50;;;;;;;9.93;7.13;;;3.10;74.90;;;;;;5025037;28;20025;-61
2023/12/02 02:06:16;;;;;;;11.77;7.32;;;3.00;74.80;;;;;;5023902;28;20026;-62
2023/12/02 02:08:41;;;;;;;11.50;7.55;;;3.00;74.70;;;;;;5025821;28;20033;-62
2023/12/02 02:11:07;;;;;;;10.45;7.10;;;3.00;74.80;;;;;;5024159;28;20029;-62
2023/12/02 02:13:33;;;;;;;11.88;7.38;;;3.00;74.80;;;;;;5025172;28;20033;-63
2023/12/02 02:15:59;;;;;;;9.85;6.97;;;3.00;74.70;;;;;;5024355;28;20029;-62
2023/12/02 02:18:25;;;;;;;13.55;8.40;;;2.90;74.70;;;;;;5023416;28;20032;-62
2023/12/02 02:20:52;;;;;;;12.40;7.72;;;3.00;74.70;;;;;;5025142;28;20029;-61
2023/12/02 02:23:20;;;;;;;12.98;8.07;;;2.90;74.70;;;;;;5022738;28;20044;-62
2023/12/02 02:25:46;;;;;;;10.65;7.43;;;2.90;74.60;;;;;;5023657;28;20036;-61
2023/12/02 02:28:12;;;;;;;12.07;7.93;;;2.90;74.50;;;;;;5025765;28;20052;-63
2023/12/02 02:30:37;;;;;;;12.73;8.25;;;2.90;74.50;;;;;;5023137;28;20025;-62
2023/12/02 02:33:03;;;;;;;13.00;8.05;;;2.80;74.60;;;;;;5024057;28;20535;-63
2023/12/02 02:35:32;;;;;;;12.82;7.93;;;2.80;74.50;;;;;;5023633;28;20041;-61
2023/12/02 02:37:58;;;;;;;13.45;7.72;;;2.80;74.60;;;;;;5024072;28;20033;-63
2023/12/02 02:40:24;;;;;;;13.50;8.10;;;2.80;74.70;;;;;;5027318;28;20491;-63
2023/12/02 02:42:49;;;;;;;11.70;7.55;;;3.10;75.10;;;;;;5029381;28;20065;-64
2023/12/02 02:45:15;;;;;;;12.55;8.32;;;2.70;74.80;;;;;;5026574;28;20437;-62
2023/12/02 02:47:40;;;;;;;13.25;8.57;;;2.70;74.90;;;;;;4937238;28;20044;-61
2023/12/02 02:50:07;;;;;;;13.25;8.63;;;2.70;75.50;;;;;;5028063;28;20029;-62
2023/12/02 02:52:33;;;;;;;13.68;8.57;;;2.70;74.80;;;;;;5026105;28;20026;-61
2023/12/02 02:54:58;;;;;;;15.77;9.77;;;2.70;74.70;;;;;;5028846;28;20048;-62
2023/12/02 02:57:25;;;;;;;15.10;8.80;;;2.70;74.80;;;;;;5027432;28;20033;-61
2023/12/02 02:59:51;;;;;;;14.07;8.32;;;2.70;74.80;;;;;;5028153;28;20029;-63
2023/12/02 03:02:17;;;;;;;12.30;8.15;;;2.70;75.50;;;;;;5026819;28;20037;-62
2023/12/02 03:04:43;;;;;;;13.63;8.55;;;2.60;74.80;;;;;;5026743;28;20037;-62
2023/12/02 03:07:08;;;;;;;15.75;9.25;;;2.60;74.80;;;;;;5028048;28;20041;-62
2023/12/02 03:09:34;;;;;;;14.45;8.98;;;2.60;74.80;;;;;;5027930;28;20025;-62
2023/12/02 03:12:00;;;;;;;12.43;8.77;;;2.80;74.90;;;;;;5028369;28;20017;-62
2023/12/02 03:14:25;;;;;;;15.85;8.68;;;2.60;74.80;;;;;;5026952;28;20715;-62
2023/12/02 03:16:51;;;;;;;15.13;8.88;;;2.60;74.80;;;;;;5026861;28;20033;-62
2023/12/02 03:19:19;;;;;;;12.93;8.35;;;2.60;75.60;;;;;;5025778;28;20061;-62
2023/12/02 03:21:45;;;;;;;12.45;8.00;;;2.70;75.00;;;;;;5025574;28;20120;-61
2023/12/02 03:24:10;;;;;;;12.82;7.80;;;2.60;75.10;;;;;;5027307;28;20144;-61
2023/12/02 03:26:36;;;;;;;14.70;9.10;;;2.60;75.10;;;;;;5028333;28;20396;-61
2023/12/02 03:29:03;;;;;;;14.75;8.93;;;2.60;75.00;;;;;;5026716;28;20053;-62
2023/12/02 03:31:29;;;;;;;13.55;8.43;;;2.60;75.00;;;;;;5025784;28;20035;-61
2023/12/02 03:33:54;;;;;;;15.35;9.18;;;2.80;75.00;;;;;;5025362;28;20100;-63
2023/12/02 03:36:20;;;;;;;15.68;9.45;;;2.60;74.90;;;;;;5026521;28;20079;-63
2023/12/02 03:38:46;;;;;;;14.80;9.65;;;2.80;74.80;;;;;;5029865;28;20104;-61
2023/12/02 03:41:12;;;;;;;16.85;9.90;;;2.60;74.70;;;;;;5028576;28;20491;-61
2023/12/02 03:43:37;;;;;;;18.52;9.77;;;2.50;74.50;;;;;;5028951;28;20029;-61
2023/12/02 03:46:03;;;;;;;15.02;9.07;;;2.70;74.50;;;;;;5025628;28;20354;-62
2023/12/02 03:48:29;;;;;;;17.98;9.85;;;2.50;74.40;;;;;;5027344;28;20048;-61
2023/12/02 03:50:54;;;;;;;20.17;9.32;;;2.80;74.60;;;;;;5024829;28;20495;-61
2023/12/02 03:53:20;;;;;;;15.15;9.20;;;2.60;74.50;;;;;;5026432;28;20041;-61
2023/12/02 03:55:46;;;;;;;16.20;9.48;;;2.40;74.50;;;;;;5026944;28;20026;-61
2023/12/02 03:58:12;;;;;;;14.18;8.90;;;2.40;74.60;;;;;;5026473;28;20386;-62
2023/12/02 04:00:37;;;;;;;16.30;9.05;;;2.40;74.70;;;;;;5026474;28;20036;-62
2023/12/02 04:03:03;;;;;;;16.08;9.55;;;2.40;74.70;;;;;;5025947;28;20033;-61
2023/12/02 04:05:29;;;;;;;15.52;9.30;;;2.40;74.70;;;;;;5027011;28;20040;-61
2023/12/02 04:07:54;;;;;;;16.08;9.73;;;2.40;74.80;;;;;;5025518;28;20196;-62
2023/12/02 04:10:20;;;;;;;17.23;9.63;;;2.40;74.90;;;;;;5027795;28;20049;-63
2023/12/02 04:12:46;;;;;;;15.27;9.30;;;2.40;74.80;;;;;;5026035;28;20029;-62
2023/12/02 04:15:12;;;;;;;20.02;9.65;;;2.40;74.90;;;;;;5023891;28;20029;-61
2023/12/02 04:17:37;;;;;;;15.48;9.30;;;2.40;74.90;;;;;;5022221;28;20033;-61
2023/12/02 04:20:08;;;;;;;18.13;10.23;;;2.40;74.80;;;;;;5026954;28;20033;-61
2023/12/02 04:22:38;;;;;;;15.30;9.57;;;2.40;74.80;;;;;;5025533;28;20128;-63
2023/12/02 04:25:05;;;;;;;18.30;10.82;;;2.50;74.80;;;;;;5026653;28;20029;-63
2023/12/02 04:27:31;;;;;;;17.38;9.80;;;2.30;74.60;;;;;;5043961;28;20028;-62
2023/12/02 04:29:57;;;;;;;18.05;9.88;;;2.60;74.90;;;;;;5025114;28;20117;-62
2023/12/02 04:32:23;;;;;;;18.17;11.07;;;2.30;74.70;;;;;;5025015;28;20223;-61
2023/12/02 04:34:49;;;;;;;18.17;10.75;;;2.30;74.60;;;;;;5026824;28;20452;-62
2023/12/02 04:37:15;;;;;;;18.67;10.75;;;2.50;74.60;;;;;;5024115;28;20457;-61
2023/12/02 04:39:41;;;;;;;17.30;10.02;;;2.30;74.50;;;;;;5039265;28;20106;-61
2023/12/02 04:42:07;;;;;;;19.52;11.80;;;2.30;74.50;;;;;;5026517;28;20053;-62
2023/12/02 04:44:33;;;;;;;21.55;11.38;;;2.60;74.70;;;;;;5039796;28;20021;-62
2023/12/02 04:46:58;;;;;;;16.90;10.50;;;2.30;74.60;;;;;;5038044;28;20464;-62
2023/12/02 04:49:24;;;;;;;18.38;11.10;;;2.30;74.60;;;;;;5025774;28;20057;-62
2023/12/02 04:51:49;;;;;;;18.92;11.18;;;2.30;74.60;;;;;;5023676;28;20018;-61
2023/12/02 04:54:15;;;;;;;18.73;9.93;;;2.30;74.60;;;;;;5025504;28;20079;-62
2023/12/02 04:56:41;;;;;;;19.25;10.70;;;2.30;74.60;;;;;;5025816;28;20044;-62
2023/12/02 04:59:07;;;;;;;17.33;10.65;;;2.30;74.50;;;;;;5026606;28;20100;-62
2023/12/02 05:01:33;;;;;;;19.48;11.35;;;2.70;74.70;;;;;;5022072;28;20041;-62
2023/12/02 05:03:58;;;;;;;20.38;11.05;;;2.50;74.60;;;;;;5025821;28;20041;-60
2023/12/02 05:06:24;;;;;;;22.48;11.07;;;2.40;74.50;;;;;;5025227;28;20492;-61
2023/12/02 05:08:50;;;;;;;19.85;11.02;;;2.40;74.50;;;;;;5024967;28;20035;-62
2023/12/02 05:11:20;;;;;;;20.33;11.52;;;2.40;74.40;;;;;;5035842;28;20372;-62
2023/12/02 05:13:46;;;;;;;19.92;11.25;;;2.40;74.30;;;;;;5037823;28;20028;-63
2023/12/02 05:16:12;;;;;;;18.50;10.95;;;2.40;74.10;;;;;;5046053;28;20026;-63
2023/12/02 05:18:42;;;;;;;19.23;11.18;;;2.40;74.10;;;;;;5036156;28;20036;-61
2023/12/02 05:21:11;;;;;;;18.90;10.57;;;2.40;74.20;;;;;;5025981;28;20052;-61
2023/12/02 05:23:40;;;;;;;19.85;10.90;;;2.30;74.00;;;;;;5025172;28;20075;-63
2023/12/02 05:26:07;;;;;;;19.38;11.85;;;2.30;74.20;;;;;;5026480;28;20034;-63
2023/12/02 05:28:33;;;;;;;21.17;10.75;;;2.30;74.30;;;;;;5025164;28;20385;-62
2023/12/02 05:30:58;;;;;;;17.50;10.75;;;2.30;74.30;;;;;;5025146;28;20040;-62
2023/12/02 05:33:24;;;;;;;17.38;10.50;;;2.30;74.30;;;;;;5021508;28;20057;-62
2023/12/02 05:35:50;;;;;;;21.00;11.73;;;2.30;74.40;;;;;;5025619;28;20123;-62
2023/12/02 05:38:16;;;;;;;18.48;10.68;;;2.30;74.40;;;;;;5023939;28;20044;-62
2023/12/02 05:40:41;;;;;;;20.10;11.27;;;2.30;74.40;;;;;;5025603;28;20018;-62
2023/12/02 05:43:07;;;;;;;19.98;11.20;;;2.30;74.30;;;;;;5025274;28;20037;-61
2023/12/02 05:45:33;;;;;;;18.35;10.82;;;2.30;74.20;;;;;;5023659;28;20029;-61
2023/12/02 05:47:59;;;;;;;20.70;10.82;;;2.30;74.20;;;;;;5024685;28;20068;-61
2023/12/02 05:50:26;;;;;;;20.17;11.13;;;2.30;74.30;;;;;;5024973;28;20025;-62
2023/12/02 05:52:51;;;;;;;23.05;12.13;;;2.30;74.30;;;;;;5022307;28;20040;-61
2023/12/02 05:55:17;;;;;;;20.77;11.52;;;2.30;74.40;;;;;;5025051;28;20029;-61
2023/12/02 05:57:46;;;;;;;18.73;11.15;;;2.30;74.40;;;;;;5024533;28;20060;-63
2023/12/02 06:00:13;;;;;;;19.38;10.85;;;2.30;74.40;;;;;;5025191;28;20079;-61
2023/12/02 06:02:39;;;;;;;20.75;11.32;;;2.40;74.50;;;;;;5025910;28;20571;-61
2023/12/02 06:05:06;;;;;;;21.08;12.07;;;2.40;74.40;;;;;;5023829;28;20032;-61
2023/12/02 06:07:32;;;;;;;20.85;11.80;;;2.40;74.20;;;;;;5023222;28;20029;-61
2023/12/02 06:09:58;;;;;;;21.52;12.48;;;2.40;74.00;;;;;;5024020;28;20192;-62
2023/12/02 06:12:23;;;;;;;22.00;12.77;;;2.50;74.00;;;;;;5024680;28;20071;-63
2023/12/02 06:14:49;;;;;;;21.27;11.93;;;2.60;74.10;;;;;;5026726;28;20033;-61
2023/12/02 06:17:15;;;;;;;20.27;11.48;;;2.30;73.90;;;;;;5027999;28;20021;-61
2023/12/02 06:19:41;;;;;;;20.70;12.35;;;2.30;73.90;;;;;;5037531;28;20040;-63
2023/12/02 06:22:06;;;;;;;21.48;12.25;;;2.30;74.50;;;;;;5028777;28;20052;-61
2023/12/02 06:24:32;;;;;;;19.52;11.25;;;2.40;73.90;;;;;;5026045;28;20029;-62
2023/12/02 06:26:57;;;;;;;21.98;12.43;;;2.20;73.80;;;;;;5026851;28;20033;-62
2023/12/02 06:29:23;;;;;;;20.60;11.80;;;2.20;73.90;;;;;;5028780;28;20069;-62
2023/12/02 06:31:50;;;;;;;19.92;11.15;;;2.20;74.00;;;;;;5028950;28;20414;-62
2023/12/02 06:34:16;;;;;;;22.15;12.65;;;2.20;74.10;;;;;;5029858;28;20029;-62
2023/12/02 06:36:42;;;;;;;25.15;11.43;;;2.30;74.30;;;;;;5024457;28;20029;-62
2023/12/02 06:39:08;;;;;;;23.67;11.38;;;2.40;74.30;;;;;;5027245;28;20033;-61
2023/12/02 06:41:34;;;;;;;18.30;10.88;;;2.20;74.10;;;;;;5028168;28;20045;-61
2023/12/02 06:43:59;;;;;;;18.58;10.65;;;2.40;74.10;;;;;;5026524;28;20032;-61
2023/12/02 06:46:25;;;;;;;20.55;10.82;;;2.20;74.00;;;;;;4964749;28;20033;-62
2023/12/02 06:48:51;;;;;;;18.60;10.85;;;2.40;74.10;;;;;;5029675;28;20017;-62
2023/12/02 06:51:17;;;;;;;19.75;11.25;;;2.20;74.10;;;;;;5025884;28;20469;-62
2023/12/02 06:53:43;;;;;;;20.67;10.95;;;2.20;74.00;;;;;;5026636;28;20663;-62
2023/12/02 06:56:19;;;;;;;18.70;10.75;;;2.20;73.90;;;;;;5026677;28;20037;-62
2023/12/02 06:58:45;;;;;;;19.00;10.35;;;2.20;73.70;;;;;;5028289;28;20024;-61
2023/12/02 07:01:10;;;;;;;17.00;9.88;;;2.20;73.70;;;;;;5027972;28;20038;-62
2023/12/02 07:03:39;;;;;;;15.13;9.48;;;2.20;73.70;;;;;;5027957;28;20032;-62
2023/12/02 07:06:05;;;;;;;15.02;8.88;;;2.10;73.70;;;;;;5024785;28;20026;-62
2023/12/02 07:08:31;;;;;;;17.75;9.30;;;2.10;73.70;;;;;;5027113;28;20029;-64
2023/12/02 07:10:56;;;;;;;13.85;7.97;;;2.10;73.50;;;;;;5027984;28;20033;-65
2023/12/02 07:13:22;;;;;;;15.38;9.13;;;2.20;74.30;;;;;;5028705;28;20033;-63
2023/12/02 07:15:47;;;;;;;14.20;8.35;;;2.10;73.60;;;;;;5027664;28;20037;-64
2023/12/02 07:18:13;;;;;;;15.15;9.20;;;2.00;73.70;;;;;;5025330;28;20037;-64
2023/12/02 07:20:39;;;;;;;15.02;8.50;;;2.00;73.80;;;;;;5024783;28;20709;-64
2023/12/02 07:23:04;;;;;;;15.02;9.23;;;2.00;73.70;;;;;;5027476;28;20456;-65
2023/12/02 07:25:30;;;;;;;13.48;8.50;;;2.00;73.80;;;;;;5036249;28;20018;-63
2023/12/02 07:27:56;;;;;;;17.35;10.18;;;2.00;74.10;;;;;;5025614;28;20072;-64
2023/12/02 07:30:21;;;;;;;16.85;9.45;;;2.00;74.10;;;;;;5026550;28;20473;-63
2023/12/02 07:32:47;;;;;;;15.73;9.55;;;2.10;74.20;;;;;;5025300;28;20052;-63
2023/12/02 07:35:13;;;;;;;13.95;9.00;;;2.10;74.20;;;;;;5027615;28;20079;-63
2023/12/02 07:37:38;;;;;;;15.77;8.70;;;2.30;74.20;;;;;;5028756;28;20100;-64
2023/12/02 07:40:05;;;;;;;15.95;9.13;;;2.10;74.00;;;;;;5029943;28;20037;-63
2023/12/02 07:42:31;;;;;;;15.70;9.40;;;2.10;74.00;;;;;;5028541;28;20025;-63
2023/12/02 07:45:00;;;;;;;15.52;9.70;;;2.10;74.10;;;;;;4976756;28;20032;-63
2023/12/02 07:47:26;;;;;;;15.45;9.07;;;2.10;73.90;;;;;;5026925;28;20060;-63
2023/12/02 07:49:52;;;;;;;17.73;10.80;;;2.10;73.90;;;;;;5028276;28;20104;-63
2023/12/02 07:52:18;;;;;;;16.70;9.68;;;2.10;73.80;;;;;;5031359;28;20187;-63
2023/12/02 07:54:43;;;;;;;12.90;8.43;;;2.10;73.90;;;;;;5023847;28;20033;-64
2023/12/02 07:57:09;;;;;;;13.23;8.15;;;2.10;74.00;;;;;;5030547;28;20021;-65
2023/12/02 07:59:34;;;;;;;13.93;8.32;;;2.40;74.20;;;;;;5030298;28;20485;-64
2023/12/02 08:02:00;;;;;;;14.02;8.50;;;2.10;74.00;;;;;;5028576;28;20502;-63
2023/12/02 08:04:26;;;;;;;14.18;7.85;;;2.10;74.00;;;;;;5029094;28;20041;-64
2023/12/02 08:06:52;;;;;;;13.07;7.47;;;2.10;74.10;;;;;;5025636;28;20036;-64
2023/12/02 08:09:17;;;;;;;10.98;7.13;;;2.10;74.10;;;;;;5026207;28;20498;-64
2023/12/02 08:11:43;;;;;;;13.63;7.90;;;2.10;74.10;;;;;;5030127;28;20029;-64
2023/12/02 08:14:09;;;;;;;11.55;7.47;;;2.10;74.20;;;;;;5029141;28;20115;-64
2023/12/02 08:16:34;;;;;;;12.32;7.45;;;2.30;74.60;;;;;;5025976;28;20129;-63
2023/12/02 08:19:00;;;;;;;10.55;6.72;;;2.20;74.30;;;;;;5024713;28;20025;-63
2023/12/02 08:21:25;;;;;;;10.70;6.65;;;2.20;74.30;;;;;;5026926;28;20037;-63
2023/12/02 08:23:51;;;;;;;9.80;6.85;;;2.30;74.20;;;;;;5027508;28;20159;-63
2023/12/02 08:26:17;;;;;;;11.23;7.03;;;2.30;74.10;;;;;;5027437;28;20069;-63
2023/12/02 08:28:46;;;;;;;12.30;7.43;;;2.40;73.90;;;;;;5030548;28;20548;-63
2023/12/02 08:31:12;;;;;;;10.73;6.93;;;2.60;73.90;;;;;;5041665;28;20038;-64
2023/12/02 08:33:37;;;;;;;9.68;6.97;;;2.60;73.90;;;;;;5027841;28;20029;-64
2023/12/02 08:36:04;;;;;;;10.45;7.07;;;2.40;73.70;;;;;;5025998;28;20022;-64
2023/12/02 08:38:30;;;;;;;11.48;7.85;;;2.40;73.60;;;;;;5027695;28;20071;-64
2023/12/02 08:40:56;;;;;;;11.02;7.10;;;2.50;73.70;;;;;;5026273;28;20478;-63
2023/12/02 08:43:21;;;;;;;10.70;6.93;;;2.50;73.80;;;;;;5025838;28;20033;-63
2023/12/02 08:45:47;;;;;;;11.43;7.50;;;2.50;73.70;;;;;;4943194;28;20473;-63
2023/12/02 08:48:13;;;;;;;9.73;6.97;;;2.60;73.50;;;;;;5025351;28;20045;-64
2023/12/02 08:50:39;;;;;;;10.68;7.15;;;2.60;73.30;;;;;;5041126;28;20025;-63
2023/12/02 08:53:05;;;;;;;12.07;7.80;;;2.60;73.40;;;;;;5025305;28;20049;-63
2023/12/02 08:55:30;;;;;;;11.52;6.90;;;2.60;73.40;;;;;;5025870;28;20053;-64
2023/12/02 08:57:56;;;;;;;12.10;7.18;;;2.70;73.40;;;;;;5026226;28;20021;-63
2023/12/02 09:00:21;;;;;;;11.13;7.50;;;2.70;73.50;;;;;;5025278;28;20030;-62
2023/12/02 09:02:47;;;;;;;10.80;7.20;;;3.10;73.70;;;;;;5025829;28;20037;-63
2023/12/02 09:05:13;;;;;;;13.73;7.75;;;3.20;73.60;;;;;;5022368;28;20100;-63
2023/12/02 09:07:39;;;;;;;16.30;8.32;;;2.90;73.40;;;;;;5024767;28;20512;-63
2023/12/02 09:10:05;;;;;;;12.65;8.30;;;2.90;73.10;;;;;;5026306;28;20040;-62
2023/12/02 09:12:31;;;;;;;12.07;8.38;;;2.90;72.90;;;;;;5026795;28;20472;-63
2023/12/02 09:15:09;;;;;;;12.93;8.50;;;3.10;72.90;;;;;;5025233;28;20041;-65
2023/12/02 09:18:07;;;;;;;13.07;8.95;;;3.00;72.50;;;;;;5021584;28;20472;-63
2023/12/02 09:20:53;;;;;;;13.98;8.90;;;3.00;72.40;;;;;;5025113;28;20421;-63
2023/12/02 09:23:20;;;;;;;17.77;9.45;;;3.00;72.40;;;;;;5024732;28;20068;-63
2023/12/02 09:25:47;;;;;;;14.60;8.85;;;3.10;72.50;;;;;;5025435;28;20028;-64
2023/12/02 09:28:26;;;;;;;14.10;8.85;;;3.00;72.60;;;;;;5024851;28;20072;-62
2023/12/02 09:30:59;;;;;;;13.75;8.85;;;3.00;72.30;;;;;;5023868;28;20033;-64
2023/12/02 09:33:28;;;;;;;15.13;8.93;;;3.00;72.40;;;;;;5023639;28;20079;-64
2023/12/02 09:35:58;;;;;;;15.32;9.52;;;3.00;72.10;;;;;;5026334;28;20021;-62
2023/12/02 09:38:25;;;;;;;15.27;9.80;;;3.00;71.70;;;;;;5025865;28;20060;-63
2023/12/02 09:41:04;;;;;;;15.80;9.65;;;3.00;72.00;;;;;;5021525;28;20087;-63
2023/12/02 09:43:44;;;;;;;14.77;9.35;;;3.00;71.50;;;;;;5026036;28;20030;-63
2023/12/02 09:46:23;;;;;;;17.13;9.00;;;3.00;71.90;;;;;;5024453;28;20025;-63
2023/12/02 09:49:12;;;;;;;18.20;9.93;;;3.00;71.60;;;;;;5022076;28;20025;-63
2023/12/02 09:51:53;;;;;;;14.48;9.30;;;3.00;71.60;;;;;;5023754;28;20070;-65
2023/12/02 09:54:52;;;;;;;14.05;9.38;;;3.20;71.70;;;;;;5024358;28;20464;-64
2023/12/02 09:57:37;;;;;;;15.40;9.57;;;3.10;71.70;;;;;;5025410;28;20033;-64
2023/12/02 10:00:15;;;;;;;14.70;9.60;;;3.20;71.80;;;;;;5023349;28;20029;-63
2023/12/02 10:03:11;;;;;;;15.45;9.70;;;3.20;71.60;;;;;;5025687;28;20440;-64
2023/12/02 10:05:55;;;;;;;15.27;9.18;;;3.30;70.60;;;;;;5021041;28;20056;-63
2023/12/02 10:09:00;;;;;;;15.50;9.50;;;3.30;70.50;;;;;;5024225;28;20025;-63
2023/12/02 10:11:56;;;;;;;16.15;9.85;;;3.20;69.40;;;;;;5020814;28;20034;-63
2023/12/02 10:14:23;;;;;;;17.58;9.85;;;3.20;70.00;;;;;;5036765;28;20033;-65
2023/12/02 10:16:52;;;;;;;13.98;8.85;;;3.20;70.60;;;;;;5023374;28;20061;-64
2023/12/02 10:19:30;;;;;;;17.25;9.48;;;3.10;70.80;;;;;;5022569;28;20024;-63
2023/12/02 10:22:02;;;;;;;16.40;10.20;;;3.10;70.20;;;;;;5021196;28;20037;-64
2023/12/02 10:24:48;;;;;;;17.20;10.15;;;3.00;70.70;;;;;;5020400;28;20021;-64
2023/12/02 10:27:17;;;;;;;14.38;9.88;;;3.00;70.40;;;;;;5024343;28;20064;-63
2023/12/02 10:30:12;;;;;;;13.05;8.82;;;3.10;70.90;;;;;;5023549;28;20047;-63
2023/12/02 10:32:53;;;;;;;15.15;9.45;;;3.00;70.80;;;;;;5037226;28;20056;-64
2023/12/02 10:35:23;;;;;;;14.77;9.35;;;3.00;69.90;;;;;;5024301;28;20034;-64
2023/12/02 10:37:57;;;;;;;14.93;9.10;;;2.90;69.80;;;;;;5023187;28;20053;-63
2023/12/02 10:40:26;;;;;;;18.20;10.17;;;2.90;70.20;;;;;;5018235;28;20045;-62
2023/12/02 10:42:59;;;;;;;13.23;8.70;;;2.90;70.30;;;;;;5024284;28;20029;-63
2023/12/02 10:45:26;;;;;;;16.95;10.70;;;2.90;70.40;;;;;;4944669;28;20029;-64
2023/12/02 10:47:52;;;;;;;15.18;9.45;;;2.80;70.30;;;;;;5022028;28;20084;-64
2023/12/02 10:50:19;;;;;;;16.00;9.90;;;2.70;70.40;;;;;;5028191;28;20041;-64
2023/12/02 10:53:00;;;;;;;15.48;9.32;;;2.70;70.50;;;;;;5028952;28;20505;-64
2023/12/02 10:55:28;;;;;;;15.90;9.75;;;2.70;70.90;;;;;;5021706;28;20029;-64
2023/12/02 10:57:56;;;;;;;15.95;9.25;;;2.60;70.90;;;;;;5023609;28;20018;-63
2023/12/02 11:00:27;;;;;;;15.95;9.63;;;2.90;71.40;;;;;;5025336;28;20116;-64
2023/12/02 11:03:02;;;;;;;16.58;10.23;;;2.60;71.30;;;;;;5027445;28;20071;-64
2023/12/02 11:05:49;;;;;;;18.83;11.35;;;2.70;71.30;;;;;;5027790;28;20034;-65
2023/12/02 11:08:19;;;;;;;18.83;11.07;;;2.70;71.30;;;;;;5027522;28;20240;-64
2023/12/02 11:10:52;;;;;;;17.13;10.98;;;2.70;71.30;;;;;;5027471;28;20017;-65
2023/12/02 11:13:23;;;;;;;17.65;10.48;;;2.70;71.20;;;;;;5025524;28;20414;-64
2023/12/02 11:16:13;;;;;;;16.13;10.43;;;2.80;71.10;;;;;;5026688;28;20113;-64
2023/12/02 11:19:12;;;;;;;17.63;10.20;;;2.80;70.90;;;;;;5026429;28;20091;-63
2023/12/02 11:21:44;;;;;;;15.13;9.98;;;2.80;69.80;;;;;;5011200;28;20068;-64
2023/12/02 11:24:35;;;;;;;14.13;8.82;;;2.70;69.90;;;;;;5027700;28;20034;-63
2023/12/02 11:27:27;;;;;;;14.82;8.65;;;2.60;69.70;;;;;;5024634;28;20129;-64
2023/12/02 11:30:41;;;;;;;12.20;7.57;;;2.60;69.80;;;;;;5023921;28;20138;-64
2023/12/02 11:33:27;;;;;;;15.05;8.35;;;2.60;70.00;;;;;;4947295;28;20066;-63
2023/12/02 11:36:12;;;;;;;14.52;8.82;;;2.60;70.20;;;;;;4942852;28;20047;-64
2023/12/02 11:39:01;;;;;;;12.80;7.88;;;2.50;70.10;;;;;;4946130;28;20098;-62
2023/12/02 11:41:37;;;;;;;12.00;7.15;;;2.50;69.70;;;;;;4941117;29;20053;-63
2023/12/02 11:44:22;;;;;;;9.32;6.45;;;2.50;70.00;;;;;;4937788;29;20039;-64
2023/12/02 11:47:22;;;;;;;12.00;7.30;;;2.50;70.10;;;;;;4944795;28;20031;-64
2023/12/02 11:50:13;;;;;;;11.32;6.93;;;2.50;70.00;;;;;;4940858;29;20046;-63
2023/12/02 11:53:15;;;;;;;11.65;7.43;;;2.50;69.60;;;;;;4947122;29;20541;-64
2023/12/02 11:55:59;;;;;;;13.25;8.48;;;2.40;70.10;;;;;;4944865;28;20039;-65
2023/12/02 11:58:34;;;;;;;8.80;5.38;;;2.40;70.00;;;;;;4942852;29;20039;-64
2023/12/02 12:01:33;;;;;;;26.77;12.20;;;2.40;69.70;;;;;;4940257;28;20149;-64
2023/12/02 12:04:20;;;;;;;12.55;7.82;;;2.30;70.00;;;;;;4988724;28;20069;-63
2023/12/02 12:07:10;;;;;;;13.10;7.40;;;2.30;69.90;;;;;;5027681;28;20056;-63
2023/12/02 12:10:03;;;;;;;12.32;6.85;;;2.30;70.00;;;;;;5025034;28;20152;-64
2023/12/02 12:12:31;;;;;;;12.75;7.35;;;2.30;69.10;;;;;;5025987;28;20029;-64
2023/12/02 12:15:00;;;;;;;9.18;6.53;;;2.20;69.60;;;;;;5028264;28;20029;-63
2023/12/02 12:17:27;;;;;;;10.23;6.82;;;2.10;69.80;;;;;;5027306;28;20017;-63
2023/12/02 12:19:52;;;;;;;12.77;7.07;;;2.40;70.20;;;;;;5026284;28;20397;-63
2023/12/02 12:22:18;;;;;;;11.23;7.13;;;2.00;70.10;;;;;;5042674;28;20033;-63
2023/12/02 12:24:44;;;;;;;23.42;11.50;;;2.00;70.50;;;;;;5027006;28;20021;-63
2023/12/02 12:27:10;;;;;;;12.10;7.68;;;2.00;70.60;;;;;;5024916;28;20030;-63
2023/12/02 12:29:53;;;;;;;13.32;8.18;;;2.10;70.60;;;;;;5027129;28;20059;-64
2023/12/02 12:32:19;;;;;;;10.88;6.97;;;2.10;70.50;;;;;;5027078;28;20380;-63
2023/12/02 12:34:45;;;;;;;9.32;6.28;;;2.10;70.40;;;;;;5026336;28;20092;-64
2023/12/02 12:37:17;;;;;;;11.07;6.65;;;2.20;70.30;;;;;;5026634;28;20531;-63
2023/12/02 12:39:46;;;;;;;20.50;11.23;;;2.10;70.20;;;;;;5025116;28;20033;-62
2023/12/02 12:42:12;;;;;;;17.80;8.05;;;2.10;70.40;;;;;;5026173;28;20057;-63
2023/12/02 12:44:41;;;;;;;13.48;7.20;;;2.10;70.50;;;;;;5026830;28;20592;-63
2023/12/02 12:47:09;;;;;;;10.70;6.47;;;2.10;70.30;;;;;;4933975;28;20061;-63
2023/12/02 12:49:39;;;;;;;11.07;6.45;;;2.10;70.20;;;;;;5024865;28;20107;-63
2023/12/02 12:52:07;;;;;;;9.23;5.88;;;2.10;70.10;;;;;;5027289;28;20045;-63
2023/12/02 12:54:38;;;;;;;9.13;5.97;;;2.00;70.00;;;;;;5026129;28;20485;-63
2023/12/02 12:57:10;;;;;;;10.27;5.85;;;2.00;69.80;;;;;;5026830;28;20057;-64